createdAt,value
2022-12-16T00:00:12.906Z,48.90
2022-12-16T00:00:44.443Z,48.90
2022-12-16T00:01:16.003Z,48.90
2022-12-16T00:01:47.564Z,48.90
2022-12-16T00:02:19.123Z,48.90
2022-12-16T00:02:50.760Z,48.90
2022-12-16T00:03:23.363Z,48.90
2022-12-16T00:03:55.329Z,48.80
2022-12-16T00:04:27.033Z,48.70
2022-12-16T00:04:58.509Z,48.70
2022-12-16T00:05:29.989Z,48.70
2022-12-16T00:06:01.491Z,48.70
2022-12-16T00:06:32.989Z,48.70
2022-12-16T00:07:04.461Z,48.70
2022-12-16T00:07:35.937Z,48.60
2022-12-16T00:08:07.441Z,48.60
2022-12-16T00:08:38.928Z,48.70
2022-12-16T00:09:10.391Z,48.60
2022-12-16T00:09:41.893Z,48.70
2022-12-16T00:10:13.372Z,48.70
2022-12-16T00:10:44.851Z,48.70
2022-12-16T00:11:16.481Z,48.70
2022-12-16T00:11:47.960Z,48.70
2022-12-16T00:12:19.435Z,48.70
2022-12-16T00:12:50.925Z,48.70
2022-12-16T00:13:23.418Z,48.60
2022-12-16T00:13:55.097Z,48.50
2022-12-16T00:14:26.689Z,48.50
2022-12-16T00:14:58.151Z,48.50
2022-12-16T00:15:29.623Z,48.60
2022-12-16T00:16:01.124Z,48.60
2022-12-16T00:16:32.757Z,48.60
2022-12-16T00:17:04.295Z,48.70
2022-12-16T00:17:35.769Z,48.80
2022-12-16T00:18:07.250Z,48.80
2022-12-16T00:18:38.725Z,48.80
2022-12-16T00:19:10.200Z,48.80
2022-12-16T00:19:41.665Z,48.70
2022-12-16T00:20:13.139Z,48.70
2022-12-16T00:20:44.633Z,48.70
2022-12-16T00:21:16.095Z,48.70
2022-12-16T00:21:47.565Z,48.60
2022-12-16T00:22:19.062Z,48.60
2022-12-16T00:22:50.536Z,48.60
2022-12-16T00:23:22.028Z,48.50
2022-12-16T00:23:53.518Z,48.60
2022-12-16T00:24:24.997Z,48.60
2022-12-16T00:24:56.485Z,48.60
2022-12-16T00:25:27.951Z,48.60
2022-12-16T00:25:59.473Z,48.60
2022-12-16T00:26:30.952Z,48.60
2022-12-16T00:27:02.444Z,48.60
2022-12-16T00:27:33.937Z,48.60
2022-12-16T00:28:05.415Z,48.60
2022-12-16T00:28:36.898Z,48.60
2022-12-16T00:29:08.378Z,48.50
2022-12-16T00:29:39.855Z,48.50
2022-12-16T00:30:11.342Z,48.50
2022-12-16T00:30:42.803Z,48.50
2022-12-16T00:31:14.329Z,48.50
2022-12-16T00:31:45.861Z,48.40
2022-12-16T00:32:17.367Z,48.40
2022-12-16T00:32:48.837Z,48.50
2022-12-16T00:33:20.291Z,48.40
2022-12-16T00:33:51.780Z,48.40
2022-12-16T00:34:23.708Z,48.30
2022-12-16T00:34:55.232Z,48.40
2022-12-16T00:35:26.710Z,48.30
2022-12-16T00:35:58.183Z,48.40
2022-12-16T00:36:29.659Z,48.40
2022-12-16T00:37:01.130Z,48.30
2022-12-16T00:37:32.654Z,48.40
2022-12-16T00:38:04.149Z,48.30
2022-12-16T00:38:35.625Z,48.30
2022-12-16T00:39:07.176Z,48.30
2022-12-16T00:39:38.647Z,48.20
2022-12-16T00:40:10.131Z,48.20
2022-12-16T00:40:41.617Z,48.30
2022-12-16T00:41:13.097Z,48.30
2022-12-16T00:41:44.601Z,48.30
2022-12-16T00:42:16.076Z,48.40
2022-12-16T00:43:51.496Z,83.60
2022-12-16T00:44:23.239Z,87.20
2022-12-16T00:44:54.821Z,87.40
2022-12-16T00:45:26.370Z,87.30
2022-12-16T00:45:57.861Z,86.70
2022-12-16T00:46:29.339Z,86.00
2022-12-16T00:47:00.800Z,85.50
2022-12-16T00:47:32.276Z,84.40
2022-12-16T00:48:03.830Z,84.20
2022-12-16T00:48:35.313Z,83.20
2022-12-16T00:49:06.792Z,82.80
2022-12-16T00:49:38.291Z,82.00
2022-12-16T00:50:09.775Z,82.00
2022-12-16T00:50:41.264Z,81.60
2022-12-16T00:51:12.745Z,81.00
2022-12-16T00:51:44.221Z,80.20
2022-12-16T00:52:15.703Z,79.30
2022-12-16T00:52:47.172Z,78.70
2022-12-16T00:53:18.649Z,78.50
2022-12-16T00:53:50.151Z,78.50
2022-12-16T00:54:22.147Z,77.60
2022-12-16T00:54:53.617Z,77.80
2022-12-16T00:55:26.466Z,77.20
2022-12-16T00:55:57.980Z,76.90
2022-12-16T00:56:29.471Z,76.90
2022-12-16T00:57:00.939Z,76.90
2022-12-16T00:57:32.404Z,76.70
2022-12-16T00:58:03.872Z,76.50
2022-12-16T00:58:35.333Z,76.50
2022-12-16T00:59:06.850Z,48.50
2022-12-16T00:59:38.320Z,48.80
2022-12-16T01:00:09.788Z,49.50
2022-12-16T01:00:41.308Z,48.80
2022-12-16T01:01:12.880Z,48.90
2022-12-16T01:01:44.756Z,48.80
2022-12-16T01:02:16.444Z,48.70
2022-12-16T01:02:48.217Z,48.60
2022-12-16T01:03:21.949Z,48.50
2022-12-16T01:03:53.787Z,48.40
2022-12-16T01:04:26.765Z,48.40
2022-12-16T01:04:58.246Z,48.30
2022-12-16T01:05:29.776Z,48.30
2022-12-16T01:06:01.254Z,48.20
2022-12-16T01:06:32.742Z,48.30
2022-12-16T01:07:04.208Z,48.20
2022-12-16T01:07:35.669Z,48.20
2022-12-16T01:08:07.130Z,48.20
2022-12-16T01:08:38.615Z,48.20
2022-12-16T01:09:10.088Z,48.20
2022-12-16T01:09:41.556Z,48.10
2022-12-16T01:10:13.012Z,48.00
2022-12-16T01:10:44.476Z,48.10
2022-12-16T01:11:15.936Z,48.00
2022-12-16T01:11:47.440Z,48.10
2022-12-16T01:12:18.900Z,48.10
2022-12-16T01:12:50.366Z,48.20
2022-12-16T01:13:22.016Z,48.20
2022-12-16T01:13:55.126Z,48.20
2022-12-16T01:14:26.845Z,48.20
2022-12-16T01:14:58.312Z,48.30
2022-12-16T01:15:29.812Z,48.30
2022-12-16T01:16:01.362Z,48.30
2022-12-16T01:16:32.957Z,48.30
2022-12-16T01:17:04.461Z,48.30
2022-12-16T01:17:35.941Z,48.20
2022-12-16T01:18:07.452Z,48.20
2022-12-16T01:18:38.938Z,48.20
2022-12-16T01:19:10.405Z,48.20
2022-12-16T01:19:41.888Z,48.20
2022-12-16T01:20:13.385Z,48.10
2022-12-16T01:20:44.874Z,48.10
2022-12-16T01:21:16.367Z,48.80
2022-12-16T01:21:47.833Z,48.10
2022-12-16T01:22:19.325Z,48.00
2022-12-16T01:22:50.829Z,48.00
2022-12-16T01:23:22.305Z,48.10
2022-12-16T01:23:55.010Z,48.00
2022-12-16T01:24:26.607Z,48.00
2022-12-16T01:24:58.073Z,48.00
2022-12-16T01:25:29.545Z,48.00
2022-12-16T01:26:01.012Z,48.10
2022-12-16T01:26:32.508Z,48.10
2022-12-16T01:27:03.991Z,48.10
2022-12-16T01:27:35.451Z,48.10
2022-12-16T01:28:06.930Z,48.10
2022-12-16T01:28:38.412Z,48.10
2022-12-16T01:29:09.890Z,48.00
2022-12-16T01:29:41.356Z,48.10
2022-12-16T01:30:12.826Z,48.10
2022-12-16T01:30:44.315Z,48.00
2022-12-16T01:31:15.858Z,47.90
2022-12-16T01:31:47.446Z,47.90
2022-12-16T01:32:18.932Z,48.00
2022-12-16T01:32:50.424Z,48.20
2022-12-16T01:33:21.974Z,48.20
2022-12-16T01:33:53.449Z,48.20
2022-12-16T01:34:24.919Z,48.30
2022-12-16T01:34:56.399Z,48.40
2022-12-16T01:35:52.605Z,48.40
2022-12-16T01:36:19.352Z,48.50
2022-12-16T01:36:50.850Z,48.30
2022-12-16T01:37:22.326Z,49.00
2022-12-16T01:37:53.799Z,48.30
2022-12-16T01:38:26.347Z,48.30
2022-12-16T01:38:57.836Z,48.30
2022-12-16T01:39:29.306Z,48.20
2022-12-16T01:40:00.777Z,48.20
2022-12-16T01:40:32.273Z,48.20
2022-12-16T01:41:03.766Z,48.20
2022-12-16T01:41:35.240Z,48.20
2022-12-16T01:42:06.718Z,48.20
2022-12-16T01:42:38.206Z,48.20
2022-12-16T01:43:09.710Z,48.20
2022-12-16T01:43:41.180Z,48.20
2022-12-16T01:44:12.673Z,48.20
2022-12-16T01:44:44.354Z,48.10
2022-12-16T01:45:15.849Z,48.10
2022-12-16T01:45:47.344Z,48.20
2022-12-16T01:46:18.936Z,48.20
2022-12-16T01:46:50.455Z,48.10
2022-12-16T01:47:22.014Z,48.20
2022-12-16T01:47:53.493Z,48.20
2022-12-16T01:48:25.662Z,48.30
2022-12-16T01:48:57.158Z,48.30
2022-12-16T01:49:28.633Z,48.40
2022-12-16T01:50:00.134Z,48.30
2022-12-16T01:50:31.638Z,48.30
2022-12-16T01:51:03.114Z,48.30
2022-12-16T01:51:34.588Z,48.40
2022-12-16T01:52:06.067Z,48.50
2022-12-16T01:52:37.530Z,48.50
2022-12-16T01:53:09.008Z,48.60
2022-12-16T01:53:40.503Z,48.60
2022-12-16T01:54:11.984Z,48.70
2022-12-16T01:54:43.443Z,48.80
2022-12-16T01:55:14.919Z,48.80
2022-12-16T01:55:46.393Z,48.80
2022-12-16T01:56:17.863Z,48.80
2022-12-16T01:56:49.370Z,48.90
2022-12-16T01:57:20.836Z,48.80
2022-12-16T01:57:52.309Z,48.80
2022-12-16T01:58:26.721Z,48.70
2022-12-16T01:58:58.192Z,48.70
2022-12-16T01:59:29.658Z,48.70
2022-12-16T02:00:01.120Z,48.70
2022-12-16T02:00:32.592Z,48.60
2022-12-16T02:01:04.123Z,48.70
2022-12-16T02:01:35.765Z,48.70
2022-12-16T02:02:07.627Z,48.70
2022-12-16T02:02:40.466Z,48.70
2022-12-16T02:03:12.153Z,48.80
2022-12-16T02:03:43.669Z,48.70
2022-12-16T02:04:15.152Z,48.80
2022-12-16T02:04:46.622Z,48.80
2022-12-16T02:05:18.097Z,48.90
2022-12-16T02:05:49.579Z,47.70
2022-12-16T02:06:21.053Z,47.80
2022-12-16T02:06:52.529Z,47.80
2022-12-16T02:07:24.004Z,47.90
2022-12-16T02:07:55.503Z,48.00
2022-12-16T02:08:26.976Z,48.00
2022-12-16T02:08:58.448Z,48.10
2022-12-16T02:09:29.919Z,48.00
2022-12-16T02:10:01.402Z,48.10
2022-12-16T02:10:32.889Z,48.10
2022-12-16T02:11:04.389Z,48.00
2022-12-16T02:11:35.881Z,47.90
2022-12-16T02:12:07.349Z,47.90
2022-12-16T02:12:40.050Z,47.80
2022-12-16T02:13:11.530Z,47.80
2022-12-16T02:13:42.993Z,47.80
2022-12-16T02:14:14.465Z,47.70
2022-12-16T02:14:45.956Z,47.70
2022-12-16T02:15:17.445Z,47.70
2022-12-16T02:15:48.945Z,47.70
2022-12-16T02:16:20.469Z,47.70
2022-12-16T02:16:52.077Z,47.70
2022-12-16T02:17:23.605Z,47.70
2022-12-16T02:17:55.082Z,47.60
2022-12-16T02:18:26.584Z,47.60
2022-12-16T02:18:58.064Z,47.60
2022-12-16T02:19:29.524Z,47.60
2022-12-16T02:20:01.000Z,47.60
2022-12-16T02:20:32.470Z,47.60
2022-12-16T02:21:03.956Z,47.60
2022-12-16T02:21:35.424Z,47.60
2022-12-16T02:22:06.902Z,47.60
2022-12-16T02:22:38.424Z,47.60
2022-12-16T02:23:09.903Z,47.50
2022-12-16T02:23:41.525Z,47.50
2022-12-16T02:24:13.011Z,47.60
2022-12-16T02:24:44.489Z,47.60
2022-12-16T02:25:15.965Z,47.70
2022-12-16T02:25:47.473Z,47.70
2022-12-16T02:26:18.970Z,47.80
2022-12-16T02:26:50.473Z,47.80
2022-12-16T02:27:22.005Z,47.90
2022-12-16T02:27:54.863Z,47.90
2022-12-16T02:28:26.613Z,47.90
2022-12-16T02:28:58.103Z,47.90
2022-12-16T02:29:29.589Z,47.80
2022-12-16T02:30:01.075Z,47.80
2022-12-16T02:30:32.610Z,47.70
2022-12-16T02:31:04.228Z,47.80
2022-12-16T02:31:35.780Z,47.60
2022-12-16T02:32:07.268Z,47.70
2022-12-16T02:32:38.751Z,47.70
2022-12-16T02:33:10.233Z,47.60
2022-12-16T02:33:41.730Z,47.60
2022-12-16T02:34:13.253Z,47.60
2022-12-16T02:34:44.721Z,47.60
2022-12-16T02:35:16.204Z,47.60
2022-12-16T02:35:47.700Z,47.80
2022-12-16T02:36:19.185Z,47.60
2022-12-16T02:36:50.660Z,47.70
2022-12-16T02:37:22.164Z,47.70
2022-12-16T02:37:53.639Z,48.00
2022-12-16T02:38:25.214Z,48.30
2022-12-16T02:38:56.833Z,49.10
2022-12-16T02:39:28.306Z,49.50
2022-12-16T02:39:59.773Z,49.80
2022-12-16T02:40:31.245Z,49.90
2022-12-16T02:41:02.757Z,50.20
2022-12-16T02:41:34.279Z,50.30
2022-12-16T02:42:05.780Z,50.50
2022-12-16T02:42:37.277Z,50.70
2022-12-16T02:43:08.781Z,50.90
2022-12-16T02:43:40.281Z,51.20
2022-12-16T02:44:11.756Z,51.40
2022-12-16T02:44:43.261Z,51.60
2022-12-16T02:45:14.779Z,51.80
2022-12-16T02:45:46.458Z,52.20
2022-12-16T02:46:17.971Z,52.40
2022-12-16T02:46:49.466Z,52.00
2022-12-16T02:47:20.942Z,52.10
2022-12-16T02:47:52.429Z,52.20
2022-12-16T02:48:23.903Z,52.20
2022-12-16T02:48:55.364Z,52.20
2022-12-16T02:49:26.847Z,52.20
2022-12-16T02:49:58.478Z,52.30
2022-12-16T02:50:29.949Z,52.30
2022-12-16T02:51:01.429Z,52.30
2022-12-16T02:51:32.908Z,52.30
2022-12-16T02:52:04.384Z,52.20
2022-12-16T02:52:35.847Z,52.20
2022-12-16T02:53:07.316Z,52.30
2022-12-16T02:53:38.783Z,52.30
2022-12-16T02:54:10.276Z,52.30
2022-12-16T02:54:41.783Z,52.40
2022-12-16T02:55:13.270Z,52.30
2022-12-16T02:55:44.751Z,52.50
2022-12-16T02:56:16.225Z,52.40
2022-12-16T02:56:47.696Z,52.60
2022-12-16T02:57:19.169Z,52.50
2022-12-16T02:57:50.641Z,52.50
2022-12-16T02:58:22.121Z,52.50
2022-12-16T02:58:53.611Z,52.60
2022-12-16T02:59:25.089Z,53.20
2022-12-16T02:59:56.575Z,52.60
2022-12-16T03:00:28.045Z,52.90
2022-12-16T03:00:59.554Z,52.90
2022-12-16T03:01:31.192Z,53.00
2022-12-16T03:02:02.977Z,53.00
2022-12-16T03:02:34.766Z,53.10
2022-12-16T03:03:06.450Z,53.20
2022-12-16T03:03:38.116Z,53.30
2022-12-16T03:04:09.638Z,53.20
2022-12-16T03:04:41.112Z,53.20
2022-12-16T03:05:12.604Z,53.10
2022-12-16T03:05:44.081Z,53.10
2022-12-16T03:06:15.569Z,53.20
2022-12-16T03:06:47.033Z,53.10
2022-12-16T03:07:18.561Z,53.20
2022-12-16T03:07:50.141Z,53.10
2022-12-16T03:08:21.611Z,53.10
2022-12-16T03:08:53.076Z,53.10
2022-12-16T03:09:24.564Z,53.30
2022-12-16T03:09:56.047Z,53.30
2022-12-16T03:10:27.549Z,53.30
2022-12-16T03:10:59.020Z,53.30
2022-12-16T03:11:30.537Z,53.50
2022-12-16T03:12:02.037Z,52.30
2022-12-16T03:12:33.545Z,52.40
2022-12-16T03:13:05.028Z,52.80
2022-12-16T03:13:36.580Z,52.90
2022-12-16T03:14:08.134Z,53.30
2022-12-16T03:14:39.608Z,53.90
2022-12-16T03:15:11.080Z,53.80
2022-12-16T03:15:42.554Z,55.00
2022-12-16T03:16:14.150Z,54.90
2022-12-16T03:16:45.786Z,56.60
2022-12-16T03:17:17.355Z,58.70
2022-12-16T03:17:48.824Z,59.90
2022-12-16T03:18:20.319Z,66.00
2022-12-16T03:18:51.784Z,86.20
2022-12-16T03:19:26.415Z,85.70
2022-12-16T03:19:57.883Z,85.70
2022-12-16T03:20:29.355Z,89.40
2022-12-16T03:21:00.872Z,90.00
2022-12-16T03:21:32.389Z,90.00
2022-12-16T03:22:03.867Z,90.20
2022-12-16T03:22:35.357Z,90.10
2022-12-16T03:23:06.840Z,89.60
2022-12-16T03:23:38.318Z,89.20
2022-12-16T03:24:09.785Z,48.00
2022-12-16T03:24:41.270Z,48.10
2022-12-16T03:25:12.749Z,48.10
2022-12-16T03:25:44.218Z,48.10
2022-12-16T03:26:15.698Z,48.10
2022-12-16T03:26:47.177Z,48.10
2022-12-16T03:27:18.674Z,48.20
2022-12-16T03:27:50.140Z,48.10
2022-12-16T03:28:21.613Z,48.10
2022-12-16T03:28:53.095Z,48.20
2022-12-16T03:29:24.560Z,48.20
2022-12-16T03:29:56.020Z,48.20
2022-12-16T03:30:27.576Z,48.20
2022-12-16T03:30:59.127Z,48.20
2022-12-16T03:31:30.648Z,48.30
2022-12-16T03:32:02.164Z,48.30
2022-12-16T03:32:33.648Z,48.20
2022-12-16T03:33:05.115Z,48.30
2022-12-16T03:33:36.583Z,48.50
2022-12-16T03:34:08.051Z,48.80
2022-12-16T03:34:39.515Z,49.10
2022-12-16T03:35:10.983Z,49.20
2022-12-16T03:35:42.456Z,49.20
2022-12-16T03:36:13.958Z,49.20
2022-12-16T03:36:45.425Z,49.40
2022-12-16T03:37:17.010Z,49.40
2022-12-16T03:37:48.567Z,49.50
2022-12-16T03:38:20.899Z,49.60
2022-12-16T03:38:52.420Z,49.60
2022-12-16T03:39:23.932Z,49.60
2022-12-16T03:39:55.423Z,49.70
2022-12-16T03:40:26.893Z,49.60
2022-12-16T03:40:58.411Z,49.70
2022-12-16T03:41:29.975Z,49.60
2022-12-16T03:42:01.439Z,49.60
2022-12-16T03:42:33.002Z,49.60
2022-12-16T03:43:04.685Z,49.60
2022-12-16T03:43:36.219Z,49.70
2022-12-16T03:44:07.691Z,49.70
2022-12-16T03:44:39.177Z,49.60
2022-12-16T03:45:10.653Z,49.60
2022-12-16T03:45:42.118Z,49.70
2022-12-16T03:46:13.657Z,49.70
2022-12-16T03:46:45.215Z,49.70
2022-12-16T03:47:23.021Z,49.80
2022-12-16T03:47:55.328Z,49.90
2022-12-16T03:48:26.847Z,50.00
2022-12-16T03:48:58.340Z,50.20
2022-12-16T03:49:29.828Z,50.30
2022-12-16T03:50:01.306Z,50.50
2022-12-16T03:50:32.780Z,50.70
2022-12-16T03:51:04.317Z,51.00
2022-12-16T03:51:35.825Z,51.10
2022-12-16T03:52:07.343Z,51.40
2022-12-16T03:52:38.860Z,51.90
2022-12-16T03:53:10.315Z,52.50
2022-12-16T03:53:41.815Z,53.80
2022-12-16T03:54:13.376Z,55.00
2022-12-16T03:54:44.989Z,60.00
2022-12-16T03:55:16.466Z,85.90
2022-12-16T04:19:15.881Z,93.60
2022-12-16T04:19:47.361Z,51.50
2022-12-16T04:20:18.839Z,51.60
2022-12-16T04:20:50.307Z,52.10
2022-12-16T04:21:22.143Z,52.70
2022-12-16T04:21:53.630Z,53.00
2022-12-16T04:22:27.124Z,54.10
2022-12-16T04:22:58.630Z,54.80
2022-12-16T04:23:30.525Z,56.20
2022-12-16T04:24:02.257Z,57.20
2022-12-16T04:24:33.751Z,58.60
2022-12-16T04:25:05.270Z,59.60
2022-12-16T04:25:36.745Z,62.20
2022-12-16T04:26:08.254Z,64.70
2022-12-16T04:26:39.729Z,69.00
2022-12-16T04:27:15.274Z,70.30
2022-12-16T04:27:47.311Z,71.90
2022-12-16T04:28:18.816Z,74.00
2022-12-16T04:28:50.292Z,76.50
2022-12-16T04:29:21.761Z,71.80
2022-12-16T04:29:53.232Z,72.90
2022-12-16T04:30:24.723Z,72.40
2022-12-16T04:30:56.263Z,73.70
2022-12-16T04:31:27.919Z,74.50
2022-12-16T04:31:59.464Z,74.70
2022-12-16T04:32:30.927Z,74.90
2022-12-16T04:33:02.397Z,75.40
2022-12-16T04:33:34.199Z,75.50
2022-12-16T04:34:06.115Z,75.70
2022-12-16T04:34:37.593Z,76.40
2022-12-16T04:35:09.090Z,76.70
2022-12-16T04:35:40.556Z,76.60
2022-12-16T04:36:12.032Z,76.60
2022-12-16T04:36:43.510Z,76.90
2022-12-16T04:37:14.979Z,77.50
2022-12-16T04:37:46.457Z,77.00
2022-12-16T04:38:17.934Z,77.90
2022-12-16T04:38:49.404Z,78.30
2022-12-16T04:39:20.868Z,79.40
2022-12-16T04:39:52.368Z,78.90
2022-12-16T04:40:23.868Z,79.90
2022-12-16T04:40:55.395Z,79.00
2022-12-16T04:41:26.945Z,79.70
2022-12-16T04:41:58.423Z,81.00
2022-12-16T04:42:29.895Z,71.10
2022-12-16T04:43:01.527Z,71.20
2022-12-16T04:43:33.348Z,71.10
2022-12-16T04:44:05.263Z,73.10
2022-12-16T04:44:36.816Z,81.40
2022-12-16T04:45:08.568Z,83.00
2022-12-16T05:12:57.881Z,68.00
2022-12-16T05:13:29.657Z,69.60
2022-12-16T05:28:24.646Z,93.50
2022-12-16T05:28:56.145Z,77.30
2022-12-16T05:29:27.644Z,79.30
2022-12-16T05:29:59.122Z,81.90
2022-12-16T05:40:09.199Z,69.50
2022-12-16T05:40:40.682Z,70.00
2022-12-16T05:41:12.176Z,70.70
2022-12-16T05:41:43.660Z,70.70
2022-12-16T05:42:15.137Z,70.80
2022-12-16T05:42:46.606Z,70.70
2022-12-16T05:43:18.075Z,70.70
2022-12-16T05:43:49.551Z,70.90
2022-12-16T05:44:21.018Z,70.80
2022-12-16T05:44:52.496Z,70.70
2022-12-16T05:45:23.983Z,70.80
2022-12-16T05:45:55.497Z,70.70
2022-12-16T05:46:27.117Z,70.70
2022-12-16T05:46:58.829Z,70.70
2022-12-16T05:47:30.504Z,70.80
2022-12-16T05:48:02.008Z,70.80
2022-12-16T05:48:33.483Z,70.90
2022-12-16T05:49:04.953Z,71.00
2022-12-16T05:49:36.424Z,71.20
2022-12-16T05:50:07.924Z,71.20
2022-12-16T05:50:39.415Z,71.40
2022-12-16T05:51:10.880Z,71.60
2022-12-16T05:51:42.343Z,71.90
2022-12-16T05:52:13.805Z,72.00
2022-12-16T05:52:45.268Z,72.20
2022-12-16T05:53:16.758Z,72.30
2022-12-16T05:53:48.434Z,72.50
2022-12-16T05:54:19.938Z,72.50
2022-12-16T05:54:51.444Z,72.70
2022-12-16T05:55:22.936Z,72.80
2022-12-16T05:55:54.422Z,72.90
2022-12-16T05:56:25.895Z,72.90
2022-12-16T05:56:57.357Z,72.90
2022-12-16T05:57:28.905Z,73.00
2022-12-16T05:58:00.375Z,73.00
2022-12-16T05:58:37.015Z,73.00
2022-12-16T05:59:08.516Z,73.20
2022-12-16T05:59:40.018Z,73.20
2022-12-16T06:00:11.491Z,73.50
2022-12-16T06:00:42.984Z,73.60
2022-12-16T06:01:14.459Z,74.00
2022-12-16T06:01:46.050Z,74.50
2022-12-16T06:02:17.680Z,75.30
2022-12-16T06:02:49.433Z,77.50
2022-12-16T06:03:21.217Z,80.60
2022-12-16T06:03:52.862Z,82.70
2022-12-16T06:04:24.433Z,85.00
2022-12-16T06:50:55.651Z,92.20
2022-12-16T06:51:27.354Z,51.10
2022-12-16T06:51:58.823Z,51.00
2022-12-16T06:52:30.288Z,50.90
2022-12-16T06:53:01.776Z,50.90
2022-12-16T06:53:33.767Z,51.00
2022-12-16T06:54:05.568Z,50.90
2022-12-16T06:54:37.048Z,50.90
2022-12-16T06:55:08.520Z,50.90
2022-12-16T06:55:40.003Z,51.00
2022-12-16T06:56:11.478Z,50.90
2022-12-16T06:56:42.999Z,51.00
2022-12-16T06:57:14.493Z,51.00
2022-12-16T06:57:45.976Z,51.00
2022-12-16T06:58:17.487Z,51.00
2022-12-16T06:58:48.980Z,51.10
2022-12-16T06:59:20.495Z,51.00
2022-12-16T06:59:52.071Z,51.00
2022-12-16T07:00:23.546Z,51.10
2022-12-16T07:00:55.042Z,51.00
2022-12-16T07:01:27.023Z,51.10
2022-12-16T07:01:58.645Z,51.20
2022-12-16T07:02:30.279Z,51.10
2022-12-16T07:03:01.916Z,51.20
2022-12-16T07:03:35.957Z,51.30
2022-12-16T07:04:07.679Z,51.40
2022-12-16T07:04:39.144Z,51.50
2022-12-16T07:05:10.613Z,51.50
2022-12-16T07:05:42.071Z,51.60
2022-12-16T07:06:13.556Z,51.70
2022-12-16T07:06:45.029Z,51.60
2022-12-16T07:07:16.499Z,51.50
2022-12-16T07:07:47.999Z,51.50
2022-12-16T07:08:19.466Z,51.50
2022-12-16T07:08:50.954Z,51.50
2022-12-16T07:09:22.438Z,51.40
2022-12-16T07:09:53.908Z,51.50
2022-12-16T07:10:25.408Z,51.40
2022-12-16T07:11:03.427Z,51.30
2022-12-16T07:11:45.224Z,51.40
2022-12-16T07:12:16.715Z,51.40
2022-12-16T07:12:48.180Z,51.40
2022-12-16T07:13:19.657Z,51.40
2022-12-16T07:13:51.139Z,51.40
2022-12-16T07:14:22.609Z,51.50
2022-12-16T07:14:54.076Z,51.50
2022-12-16T07:15:25.540Z,51.60
2022-12-16T07:15:57.123Z,51.60
2022-12-16T07:16:28.706Z,51.60
2022-12-16T07:17:00.226Z,51.60
2022-12-16T07:17:31.692Z,51.60
2022-12-16T07:18:03.165Z,51.70
2022-12-16T07:18:34.647Z,51.80
2022-12-16T07:19:06.124Z,51.70
2022-12-16T07:19:37.582Z,51.80
2022-12-16T07:20:09.043Z,51.80
2022-12-16T07:20:40.500Z,51.80
2022-12-16T07:21:11.964Z,51.80
2022-12-16T07:21:43.455Z,51.80
2022-12-16T07:22:14.960Z,51.80
2022-12-16T07:22:46.461Z,51.90
2022-12-16T07:23:20.057Z,51.90
2022-12-16T07:23:51.628Z,52.10
2022-12-16T07:24:24.162Z,52.20
2022-12-16T07:24:55.631Z,52.20
2022-12-16T07:25:27.122Z,52.30
2022-12-16T07:25:58.607Z,52.30
2022-12-16T07:26:30.076Z,52.30
2022-12-16T07:27:01.569Z,52.20
2022-12-16T07:27:33.050Z,52.10
2022-12-16T07:28:04.547Z,52.00
2022-12-16T07:28:36.013Z,52.00
2022-12-16T07:29:07.488Z,52.00
2022-12-16T07:29:38.947Z,52.00
2022-12-16T07:30:10.422Z,52.00
2022-12-16T07:30:41.958Z,52.00
2022-12-16T07:31:13.496Z,52.00
2022-12-16T07:31:45.021Z,51.90
2022-12-16T07:32:16.913Z,51.80
2022-12-16T07:32:48.574Z,51.90
2022-12-16T07:33:20.198Z,51.80
2022-12-16T07:33:51.686Z,51.90
2022-12-16T07:34:23.162Z,52.00
2022-12-16T07:34:54.632Z,51.80
2022-12-16T07:35:26.872Z,51.80
2022-12-16T07:35:58.333Z,51.90
2022-12-16T07:36:29.818Z,51.90
2022-12-16T07:37:01.356Z,52.00
2022-12-16T07:37:32.871Z,52.00
2022-12-16T07:38:04.380Z,52.10
2022-12-16T07:38:35.854Z,52.10
2022-12-16T07:39:07.324Z,52.20
2022-12-16T07:39:38.806Z,52.20
2022-12-16T07:40:10.340Z,52.30
2022-12-16T07:40:41.873Z,52.30
2022-12-16T07:41:13.341Z,52.30
2022-12-16T07:41:44.817Z,52.20
2022-12-16T07:42:16.289Z,52.10
2022-12-16T07:42:47.753Z,52.10
2022-12-16T07:43:19.276Z,52.10
2022-12-16T07:43:50.799Z,52.00
2022-12-16T07:44:22.261Z,52.00
2022-12-16T07:44:53.722Z,52.00
2022-12-16T07:45:25.246Z,52.00
2022-12-16T07:45:56.788Z,51.90
2022-12-16T07:46:28.311Z,51.90
2022-12-16T07:46:59.811Z,51.80
2022-12-16T07:47:31.281Z,51.80
2022-12-16T07:48:02.754Z,51.90
2022-12-16T07:48:34.224Z,51.90
2022-12-16T07:49:05.693Z,51.60
2022-12-16T07:49:37.157Z,51.50
2022-12-16T07:50:08.615Z,51.50
2022-12-16T07:50:40.105Z,51.50
2022-12-16T07:51:11.630Z,51.60
2022-12-16T07:51:45.880Z,51.50
2022-12-16T07:52:17.348Z,51.60
2022-12-16T07:52:48.832Z,51.60
2022-12-16T07:53:20.325Z,51.60
2022-12-16T07:53:51.798Z,51.60
2022-12-16T07:54:23.490Z,51.70
2022-12-16T07:54:54.982Z,51.80
2022-12-16T07:55:27.020Z,51.80
2022-12-16T07:55:58.503Z,51.80
2022-12-16T07:56:29.993Z,51.90
2022-12-16T07:57:01.461Z,51.90
2022-12-16T07:57:32.948Z,51.90
2022-12-16T07:58:04.433Z,51.80
2022-12-16T07:58:35.908Z,51.70
2022-12-16T07:59:07.372Z,51.70
2022-12-16T07:59:38.831Z,51.70
2022-12-16T08:00:10.343Z,51.60
2022-12-16T08:00:41.866Z,51.70
2022-12-16T08:01:13.379Z,51.60
2022-12-16T08:01:45.032Z,79.60
2022-12-16T08:02:16.692Z,79.50
2022-12-16T08:02:48.456Z,79.30
2022-12-16T08:03:20.095Z,79.20
2022-12-16T08:03:51.689Z,79.10
2022-12-16T08:04:24.347Z,79.10
2022-12-16T08:04:55.905Z,79.20
2022-12-16T08:05:27.392Z,79.20
2022-12-16T08:05:58.863Z,79.20
2022-12-16T08:06:30.444Z,79.50
2022-12-16T08:07:01.916Z,79.50
2022-12-16T08:07:33.382Z,79.40
2022-12-16T08:08:04.875Z,79.60
2022-12-16T08:08:36.346Z,79.50
2022-12-16T08:09:07.815Z,79.60
2022-12-16T08:09:39.278Z,79.50
2022-12-16T08:10:10.748Z,79.60
2022-12-16T08:10:42.226Z,79.50
2022-12-16T08:11:13.717Z,79.30
2022-12-16T08:11:45.180Z,79.30
2022-12-16T08:12:16.654Z,79.50
2022-12-16T08:12:48.119Z,79.30
2022-12-16T08:13:25.152Z,79.50
2022-12-16T08:13:57.269Z,79.30
2022-12-16T08:14:28.742Z,79.40
2022-12-16T08:15:00.219Z,79.50
2022-12-16T08:15:31.695Z,79.50
2022-12-16T08:16:03.165Z,79.60
2022-12-16T08:16:34.668Z,79.50
2022-12-16T08:17:06.235Z,79.40
2022-12-16T08:17:37.724Z,79.30
2022-12-16T08:18:09.190Z,80.10
2022-12-16T08:18:40.657Z,79.30
2022-12-16T08:19:12.125Z,79.20
2022-12-16T08:19:43.607Z,79.20
2022-12-16T08:20:15.081Z,79.20
2022-12-16T08:20:46.553Z,79.00
2022-12-16T08:21:18.037Z,79.00
2022-12-16T08:21:49.526Z,79.00
2022-12-16T08:22:21.009Z,78.90
2022-12-16T08:22:52.523Z,78.90
2022-12-16T08:23:24.055Z,78.80
2022-12-16T08:23:55.562Z,78.70
2022-12-16T08:24:27.025Z,78.60
2022-12-16T08:24:58.494Z,78.60
2022-12-16T08:25:29.995Z,78.60
2022-12-16T08:26:01.471Z,78.50
2022-12-16T08:26:33.217Z,78.50
2022-12-16T08:27:04.738Z,78.30
2022-12-16T08:27:36.228Z,78.50
2022-12-16T08:28:07.709Z,78.30
2022-12-16T08:28:39.174Z,78.50
2022-12-16T08:29:35.120Z,78.50
2022-12-16T08:30:02.112Z,78.50
2022-12-16T08:30:33.633Z,78.60
2022-12-16T08:31:05.169Z,78.60
2022-12-16T08:31:36.686Z,78.60
2022-12-16T08:32:08.191Z,78.70
2022-12-16T08:32:39.887Z,78.60
2022-12-16T08:33:18.849Z,78.50
2022-12-16T08:33:51.255Z,78.30
2022-12-16T08:34:22.738Z,78.30
2022-12-16T08:34:54.201Z,78.30
2022-12-16T08:35:26.733Z,78.20
2022-12-16T08:35:58.196Z,78.20
2022-12-16T08:36:29.708Z,78.00
2022-12-16T08:37:01.181Z,77.90
2022-12-16T08:37:32.658Z,77.90
2022-12-16T08:38:07.609Z,77.90
2022-12-16T08:38:41.943Z,77.80
2022-12-16T08:39:13.431Z,77.90
2022-12-16T08:39:45.011Z,77.90
2022-12-16T08:40:34.957Z,77.80
2022-12-16T08:41:07.004Z,77.90
2022-12-16T08:41:38.464Z,77.90
2022-12-16T08:42:09.934Z,77.80
2022-12-16T08:42:41.404Z,77.80
2022-12-16T08:43:13.028Z,77.90
2022-12-16T08:43:44.536Z,77.70
2022-12-16T08:44:16.010Z,77.60
2022-12-16T08:44:47.476Z,77.60
2022-12-16T08:45:19.013Z,77.40
2022-12-16T08:45:50.588Z,77.40
2022-12-16T08:46:22.799Z,77.30
2022-12-16T08:46:54.342Z,77.20
2022-12-16T08:47:25.825Z,77.20
2022-12-16T08:47:57.299Z,77.10
2022-12-16T08:48:28.791Z,77.10
2022-12-16T08:49:00.268Z,77.10
2022-12-16T08:49:31.742Z,77.00
2022-12-16T08:50:03.225Z,77.00